Time;durP1;ratioP1;P1;durP2;ratioP2;P2;SDS_P1;SDS_P2;PMS_P1;PMS_P2;Temp;Humidity;BMP_temperature;BMP_pressure;BME280_temperature;BME280_humidity;BME280_pressure;Samples;Min_cycle;Max_cycle;Signal;HPM_P1;HPM_P2
2021/05/06 00:06:22;;;;;;;4.55;2.22;;;5.90;99.90;;;;;;5084160;28;20044;-84
2021/05/06 00:08:46;;;;;;;6.65;2.58;;;5.80;99.90;;;;;;5088015;28;20052;-84
2021/05/06 00:32:58;;;;;;;4.93;1.92;;;5.30;99.90;;;;;;5084226;28;20605;-84
2021/05/06 00:35:26;;;;;;;3.97;1.90;;;5.30;99.90;;;;;;5079827;28;20463;-84
2021/05/06 00:38:04;;;;;;;3.95;2.15;;;5.40;99.90;;;;;;5077660;28;20058;-84
2021/05/06 00:41:08;;;;;;;4.85;2.10;;;5.40;99.90;;;;;;5082381;28;20048;-84
2021/05/06 00:54:45;;;;;;;4.82;1.80;;;5.30;99.90;;;;;;5076897;28;20048;-84
2021/05/06 00:57:17;;;;;;;4.93;2.28;;;5.30;99.90;;;;;;5063423;28;20104;-84
2021/05/06 01:05:07;;;;;;;6.78;2.10;;;5.10;99.90;;;;;;5081809;28;20126;-84
2021/05/06 01:07:49;;;;;;;3.47;2.05;;;5.10;99.90;;;;;;5090985;27;20597;-84
2021/05/06 01:10:34;;;;;;;5.55;2.15;;;5.10;99.90;;;;;;5078621;28;20531;-83
2021/05/06 01:13:01;;;;;;;2.72;2.03;;;5.10;99.90;;;;;;5078125;28;20055;-84
2021/05/06 01:15:27;;;;;;;3.08;1.98;;;5.00;99.90;;;;;;5070555;28;20072;-83
2021/05/06 01:17:54;;;;;;;4.32;2.38;;;5.00;99.90;;;;;;5077407;28;20093;-85
2021/05/06 01:20:21;;;;;;;5.55;2.47;;;5.00;99.90;;;;;;5079431;28;22011;-84
2021/05/06 01:22:47;;;;;;;3.70;2.67;;;4.90;99.90;;;;;;5079842;28;20566;-84
2021/05/06 01:25:15;;;;;;;3.85;2.25;;;4.80;99.90;;;;;;5092409;28;20123;-84
2021/05/06 01:28:05;;;;;;;3.50;2.30;;;4.80;99.90;;;;;;5078770;28;20052;-84
2021/05/06 01:30:43;;;;;;;4.63;2.53;;;4.80;99.90;;;;;;5082435;28;20044;-84
2021/05/06 01:33:20;;;;;;;4.63;2.60;;;4.70;99.90;;;;;;5080480;28;20075;-84
2021/05/06 01:35:55;;;;;;;5.22;3.00;;;4.70;99.90;;;;;;5091734;28;20055;-84
2021/05/06 01:38:43;;;;;;;3.78;2.65;;;4.70;99.90;;;;;;5078116;28;20583;-83
2021/05/06 01:41:34;;;;;;;4.05;2.53;;;4.70;99.90;;;;;;5080628;28;20130;-84
2021/05/06 01:44:09;;;;;;;4.43;2.63;;;4.70;99.90;;;;;;5077972;28;20411;-84
2021/05/06 01:50:31;;;;;;;7.40;2.80;;;4.80;99.90;;;;;;5078998;28;20055;-84
2021/05/06 02:00:21;;;;;;;6.13;3.33;;;4.70;99.90;;;;;;5079076;28;20044;-84
2021/05/06 02:02:48;;;;;;;4.18;3.10;;;4.70;99.90;;;;;;5083485;28;21016;-84
2021/05/06 02:05:16;;;;;;;4.72;3.08;;;4.70;99.90;;;;;;5080079;28;20040;-84
2021/05/06 02:07:44;;;;;;;6.03;3.70;;;4.70;99.90;;;;;;5075407;28;20044;-84
2021/05/06 02:10:13;;;;;;;6.28;3.42;;;4.70;99.90;;;;;;5075562;28;20612;-84
2021/05/06 02:12:40;;;;;;;5.43;3.42;;;4.80;99.90;;;;;;5082285;28;20131;-83
2021/05/06 02:15:29;;;;;;;8.02;3.35;;;4.80;99.90;;;;;;5075324;28;20127;-84
2021/05/06 02:17:57;;;;;;;8.25;3.85;;;4.80;99.90;;;;;;5076513;28;20737;-84
2021/05/06 02:20:24;;;;;;;7.38;3.30;;;4.80;99.90;;;;;;5075997;28;20059;-83
2021/05/06 02:22:51;;;;;;;5.28;3.83;;;4.70;99.90;;;;;;5079401;28;20091;-84
2021/05/06 02:25:19;;;;;;;6.38;3.75;;;4.70;99.90;;;;;;5080183;28;20075;-84
2021/05/06 02:27:45;;;;;;;6.63;4.03;;;4.70;99.90;;;;;;5076759;28;20143;-83
2021/05/06 02:30:13;;;;;;;6.32;3.75;;;4.60;99.90;;;;;;5075292;28;20579;-84
2021/05/06 02:32:39;;;;;;;7.70;4.00;;;4.50;99.90;;;;;;5075834;28;20048;-84
2021/05/06 02:35:06;;;;;;;8.43;4.40;;;4.50;99.90;;;;;;5075478;28;20059;-83
2021/05/06 02:37:33;;;;;;;6.85;4.55;;;4.40;99.90;;;;;;5079751;28;20362;-84
2021/05/06 02:39:59;;;;;;;8.00;5.13;;;4.30;99.90;;;;;;5074524;28;20052;-84
2021/05/06 02:42:26;;;;;;;8.93;5.32;;;4.20;99.90;;;;;;5076275;28;20408;-84
2021/05/06 02:44:52;;;;;;;9.60;5.50;;;4.20;99.90;;;;;;5082691;28;20082;-84
2021/05/06 02:47:19;;;;;;;9.07;5.97;;;4.10;99.90;;;;;;5078678;28;20060;-84
2021/05/06 02:49:47;;;;;;;10.48;5.85;;;4.10;99.90;;;;;;5067511;28;20055;-84
2021/05/06 02:52:25;;;;;;;8.80;5.82;;;4.10;99.90;;;;;;5074955;28;20061;-84
2021/05/06 02:55:31;;;;;;;11.95;6.40;;;4.00;99.90;;;;;;5075344;28;20101;-85
2021/05/06 03:02:57;;;;;;;14.55;7.18;;;3.90;99.90;;;;;;5080670;28;20480;-83
2021/05/06 03:05:27;;;;;;;9.95;6.45;;;3.80;99.90;;;;;;5063437;28;20044;-84
2021/05/06 03:24:19;;;;;;;13.27;7.15;;;3.50;99.90;;;;;;5082531;28;20079;-84
2021/05/06 03:26:45;;;;;;;12.60;8.05;;;3.50;99.90;;;;;;5065477;28;20054;-84
2021/05/06 03:29:18;;;;;;;12.98;7.78;;;3.50;99.90;;;;;;5080748;28;20486;-84
2021/05/06 03:34:51;;;;;;;15.35;7.72;;;3.40;99.90;;;;;;4986860;28;20536;-84
2021/05/06 03:43:15;;;;;;;16.73;8.07;;;3.30;99.90;;;;;;5081911;28;20052;-84
2021/05/06 03:48:58;;;;;;;14.57;8.05;;;3.20;99.90;;;;;;5080060;28;20107;-84
2021/05/06 04:18:33;;;;;;;17.35;10.15;;;3.10;99.90;;;;;;5081285;28;20492;-84
2021/05/06 04:37:04;;;;;;;19.38;11.35;;;3.30;99.90;;;;;;5078394;28;20402;-84
2021/05/06 04:39:43;;;;;;;28.92;12.15;;;3.30;99.90;;;;;;5081984;28;20538;-84
2021/05/06 04:53:25;;;;;;;24.45;14.13;;;3.30;99.90;;;;;;5079419;28;20080;-84
2021/05/06 04:55:52;;;;;;;28.80;15.00;;;3.60;99.90;;;;;;5082855;28;20146;-84
2021/05/06 05:06:39;;;;;;;29.35;17.45;;;4.20;99.90;;;;;;5072094;28;20281;-82
2021/05/06 05:11:51;;;;;;;32.22;17.42;;;4.40;99.90;;;;;;5085921;28;20048;-82
2021/05/06 05:24:31;;;;;;;29.75;17.42;;;4.50;99.90;;;;;;5069736;28;20068;-82
2021/05/06 05:26:57;;;;;;;30.98;18.23;;;4.50;99.90;;;;;;5054819;28;20044;-82
2021/05/06 05:29:24;;;;;;;32.83;18.02;;;4.60;99.90;;;;;;5051658;28;20114;-82
2021/05/06 05:31:50;;;;;;;28.90;16.58;;;4.70;99.90;;;;;;5067199;28;20059;-81
2021/05/06 05:34:37;;;;;;;29.30;17.23;;;4.80;99.90;;;;;;5083260;28;20055;-82
2021/05/06 05:37:04;;;;;;;28.42;17.13;;;5.00;99.90;;;;;;5080239;28;20470;-82
2021/05/06 05:39:40;;;;;;;26.45;17.08;;;5.10;99.90;;;;;;5068645;28;20124;-82
2021/05/06 05:42:23;;;;;;;27.23;17.98;;;5.20;99.90;;;;;;5077332;28;20109;-82
2021/05/06 05:55:26;;;;;;;25.45;15.43;;;6.20;99.90;;;;;;5050024;28;20048;-82
2021/05/06 05:57:52;;;;;;;27.58;16.10;;;6.40;99.90;;;;;;5084898;28;20406;-82
2021/05/06 06:00:19;;;;;;;24.35;16.45;;;6.40;99.90;;;;;;5051154;28;20390;-82
2021/05/06 06:02:46;;;;;;;25.00;17.20;;;6.40;99.90;;;;;;5077981;28;20087;-82
2021/05/06 06:05:13;;;;;;;25.95;17.08;;;6.30;99.90;;;;;;5087519;28;20106;-82
2021/05/06 06:07:39;;;;;;;26.02;17.77;;;6.30;99.90;;;;;;5075924;28;20399;-82
2021/05/06 06:10:07;;;;;;;24.33;16.45;;;6.30;99.90;;;;;;5075811;28;20067;-82
2021/05/06 06:12:33;;;;;;;24.13;16.98;;;6.40;99.90;;;;;;5071480;28;20087;-82
2021/05/06 06:15:08;;;;;;;26.92;17.52;;;6.50;99.90;;;;;;5080487;28;20411;-83
2021/05/06 06:17:41;;;;;;;27.35;16.80;;;6.70;99.90;;;;;;5079089;28;20535;-82
2021/05/06 06:20:09;;;;;;;25.58;17.40;;;6.90;99.90;;;;;;5076330;28;20052;-83
2021/05/06 06:22:37;;;;;;;23.67;15.85;;;7.10;99.90;;;;;;5085453;28;20052;-83
2021/05/06 06:25:04;;;;;;;22.65;15.68;;;7.30;99.90;;;;;;5068211;28;20079;-82
2021/05/06 06:27:31;;;;;;;26.33;17.15;;;7.40;99.90;;;;;;5082499;28;20048;-82
2021/05/06 06:29:58;;;;;;;24.10;16.58;;;7.50;99.90;;;;;;5076508;28;20112;-83
2021/05/06 06:32:25;;;;;;;25.60;16.35;;;7.50;99.90;;;;;;5081476;28;20052;-83
2021/05/06 06:34:51;;;;;;;25.20;17.38;;;7.40;99.90;;;;;;5078933;28;20077;-83
2021/05/06 06:37:18;;;;;;;22.38;15.48;;;7.30;99.90;;;;;;5033627;28;20051;-83
2021/05/06 06:39:48;;;;;;;18.15;12.30;;;7.30;99.90;;;;;;5054120;28;20055;-83
2021/05/06 06:42:14;;;;;;;14.85;10.07;;;7.30;99.90;;;;;;5076659;28;20064;-83
2021/05/06 06:44:41;;;;;;;13.80;9.88;;;7.20;99.90;;;;;;5079657;28;20044;-83
2021/05/06 06:47:08;;;;;;;11.98;7.60;;;7.20;99.90;;;;;;5081724;28;20048;-83
2021/05/06 06:49:40;;;;;;;9.93;7.28;;;7.30;99.90;;;;;;5078349;28;20109;-82
2021/05/06 06:52:09;;;;;;;9.88;7.40;;;7.30;99.90;;;;;;5078908;28;20058;-83
2021/05/06 06:54:36;;;;;;;11.93;7.57;;;7.40;99.90;;;;;;5095918;28;20583;-82
2021/05/06 06:57:08;;;;;;;14.00;9.50;;;7.40;99.90;;;;;;5099113;28;20099;-83
2021/05/06 06:59:35;;;;;;;19.65;11.82;;;7.40;99.90;;;;;;5080774;28;20136;-83
2021/05/06 07:02:02;;;;;;;23.50;14.68;;;7.50;99.90;;;;;;5082237;28;20052;-82
2021/05/06 07:04:28;;;;;;;25.30;14.85;;;7.50;99.90;;;;;;5085787;28;20878;-82
2021/05/06 07:06:56;;;;;;;22.95;14.75;;;7.50;99.90;;;;;;5079323;28;20048;-83
2021/05/06 07:09:23;;;;;;;19.52;13.65;;;7.60;99.90;;;;;;5071786;28;20052;-84
2021/05/06 07:11:50;;;;;;;20.73;13.27;;;7.80;99.90;;;;;;5069881;28;20105;-82
2021/05/06 07:14:17;;;;;;;21.10;15.15;;;8.10;99.90;;;;;;5097938;27;20586;-83
2021/05/06 07:16:43;;;;;;;20.58;15.15;;;8.30;99.90;;;;;;5081950;28;20063;-79
2021/05/06 07:19:11;;;;;;;19.30;13.18;;;8.40;99.90;;;;;;5081314;28;20048;-82
2021/05/06 07:21:37;;;;;;;17.83;11.63;;;8.40;99.90;;;;;;5070542;28;20471;-80
2021/05/06 07:24:04;;;;;;;19.95;12.40;;;8.40;99.90;;;;;;5080587;28;20047;-80
2021/05/06 07:26:32;;;;;;;18.17;12.50;;;8.40;99.90;;;;;;5080736;28;20647;-82
2021/05/06 07:29:01;;;;;;;17.48;11.98;;;8.40;99.90;;;;;;5071789;28;20059;-81
2021/05/06 07:31:30;;;;;;;16.52;12.57;;;8.40;99.90;;;;;;5081093;28;20047;-83
2021/05/06 07:34:00;;;;;;;18.92;12.88;;;8.40;99.90;;;;;;5072522;28;20106;-81
2021/05/06 07:36:29;;;;;;;18.38;13.45;;;8.50;99.90;;;;;;5088795;28;20131;-81
2021/05/06 07:39:00;;;;;;;17.50;13.90;;;8.60;99.90;;;;;;5068863;28;20056;-81
2021/05/06 07:41:29;;;;;;;18.42;13.20;;;8.60;99.90;;;;;;5053978;28;20059;-80
2021/05/06 07:43:59;;;;;;;19.42;13.82;;;8.70;99.90;;;;;;5060989;28;20060;-81
2021/05/06 07:46:28;;;;;;;18.63;14.40;;;8.70;99.90;;;;;;5063451;28;20055;-80
2021/05/06 07:48:58;;;;;;;20.65;13.73;;;8.80;99.90;;;;;;5054729;28;20110;-80
2021/05/06 07:51:28;;;;;;;17.05;13.20;;;9.00;99.90;;;;;;5078686;28;20076;-80
2021/05/06 07:54:05;;;;;;;18.67;12.60;;;9.10;99.90;;;;;;5062252;28;20044;-80
2021/05/06 07:56:38;;;;;;;16.73;12.15;;;9.20;99.90;;;;;;5065775;28;20064;-80
2021/05/06 07:59:06;;;;;;;17.13;11.77;;;9.30;99.90;;;;;;5049187;28;20048;-80
2021/05/06 08:01:35;;;;;;;13.98;11.38;;;9.30;99.90;;;;;;5063610;28;20143;-80
2021/05/06 08:04:03;;;;;;;17.30;11.10;;;9.50;99.90;;;;;;5065787;28;20046;-80
2021/05/06 08:06:30;;;;;;;13.32;9.27;;;9.60;99.90;;;;;;5062933;28;20181;-80
2021/05/06 08:08:56;;;;;;;10.73;7.85;;;9.70;99.90;;;;;;5061028;28;20060;-81
2021/05/06 08:11:23;;;;;;;11.25;8.23;;;9.70;99.90;;;;;;5079854;28;20055;-80
2021/05/06 08:13:49;;;;;;;11.90;8.65;;;9.90;99.90;;;;;;5042475;28;20056;-80
2021/05/06 08:16:15;;;;;;;10.45;7.15;;;10.20;99.90;;;;;;5049875;28;20521;-80
2021/05/06 08:18:42;;;;;;;10.60;7.80;;;10.50;99.90;;;;;;5052308;28;20088;-81
2021/05/06 08:21:08;;;;;;;10.48;7.57;;;10.50;99.90;;;;;;5075987;28;20112;-81
2021/05/06 08:23:35;;;;;;;9.68;6.38;;;10.50;99.90;;;;;;5076519;28;20158;-81
2021/05/06 08:26:07;;;;;;;7.18;6.15;;;10.50;99.90;;;;;;5062957;28;20078;-81
2021/05/06 08:28:52;;;;;;;7.90;6.38;;;10.70;99.90;;;;;;5041672;28;20077;-81
2021/05/06 08:31:19;;;;;;;9.63;7.15;;;11.10;99.90;;;;;;5082032;28;20056;-81
2021/05/06 08:33:45;;;;;;;10.05;7.88;;;11.30;99.90;;;;;;5099974;28;20481;-81
2021/05/06 08:36:16;;;;;;;12.77;7.93;;;11.30;99.90;;;;;;5073760;28;20056;-81
2021/05/06 08:38:42;;;;;;;9.63;7.55;;;11.10;99.90;;;;;;5078053;28;20143;-78
2021/05/06 08:41:08;;;;;;;9.15;7.18;;;11.00;99.90;;;;;;5072892;28;20052;-80
2021/05/06 08:43:39;;;;;;;12.73;8.05;;;10.90;99.90;;;;;;5056962;28;20116;-79
2021/05/06 08:46:06;;;;;;;11.20;6.82;;;10.90;99.90;;;;;;5067177;28;20051;-79
2021/05/06 08:48:53;;;;;;;10.73;8.32;;;11.00;99.90;;;;;;5058180;28;20498;-79
2021/05/06 08:51:21;;;;;;;11.07;8.10;;;11.20;99.90;;;;;;5071512;28;20055;-80
2021/05/06 08:53:47;;;;;;;10.95;7.93;;;11.40;99.90;;;;;;5073870;28;20044;-80
2021/05/06 08:56:14;;;;;;;13.63;8.15;;;11.40;99.90;;;;;;5087980;28;20233;-80
2021/05/06 08:58:40;;;;;;;9.88;7.65;;;11.40;99.90;;;;;;5080968;28;20099;-80
2021/05/06 09:01:07;;;;;;;10.10;7.88;;;11.50;99.90;;;;;;5081774;27;20058;-80
2021/05/06 09:03:34;;;;;;;9.95;7.10;;;11.50;99.90;;;;;;5080778;28;20048;-79
2021/05/06 09:06:14;;;;;;;7.05;6.18;;;11.50;99.90;;;;;;5053204;28;20063;-80
2021/05/06 09:08:52;;;;;;;10.07;6.63;;;11.40;99.90;;;;;;5051717;28;20109;-79
2021/05/06 09:11:29;;;;;;;7.60;6.75;;;11.50;99.90;;;;;;5086202;28;20043;-79
2021/05/06 09:14:40;;;;;;;7.55;5.00;;;11.50;99.90;;;;;;5081072;28;20044;-79
2021/05/06 09:17:28;;;;;;;5.97;4.47;;;11.50;99.90;;;;;;5081546;28;20037;-79
2021/05/06 09:20:14;;;;;;;5.18;4.22;;;11.70;99.20;;;;;;5067717;28;20077;-80
2021/05/06 09:22:45;;;;;;;4.43;3.63;;;11.90;97.70;;;;;;5078872;28;20139;-79
2021/05/06 09:25:34;;;;;;;4.75;3.85;;;12.20;95.50;;;;;;5065933;28;20469;-80
2021/05/06 09:28:08;;;;;;;4.40;4.00;;;12.50;94.60;;;;;;5079687;28;20043;-82
2021/05/06 09:30:55;;;;;;;5.25;4.50;;;12.50;96.60;;;;;;5081761;28;20062;-82
2021/05/06 09:33:29;;;;;;;8.38;4.78;;;12.40;93.30;;;;;;5085783;28;20048;-81
2021/05/06 09:35:55;;;;;;;6.13;5.15;;;12.30;94.70;;;;;;5080907;28;20044;-80
2021/05/06 09:38:32;;;;;;;8.13;5.25;;;12.30;93.50;;;;;;5081766;28;20052;-79
2021/05/06 09:41:03;;;;;;;5.70;4.93;;;12.20;93.90;;;;;;5081329;27;20078;-80
2021/05/06 09:43:41;;;;;;;6.13;5.00;;;12.10;95.20;;;;;;5073318;28;20040;-77
2021/05/06 09:46:35;;;;;;;5.70;4.88;;;12.10;95.10;;;;;;5082909;28;20051;-79
2021/05/06 09:49:07;;;;;;;6.35;5.30;;;11.90;95.90;;;;;;5077202;28;20045;-79
2021/05/06 09:51:35;;;;;;;7.65;5.47;;;11.70;95.90;;;;;;5058693;28;20496;-80
2021/05/06 09:54:03;;;;;;;7.55;5.88;;;11.40;99.50;;;;;;5071957;28;20052;-80
2021/05/06 09:56:30;;;;;;;8.35;6.97;;;11.30;99.90;;;;;;5072099;28;20060;-81
2021/05/06 09:58:57;;;;;;;6.85;6.03;;;11.20;99.90;;;;;;5074530;28;20143;-78
2021/05/06 10:01:35;;;;;;;9.45;7.18;;;11.10;99.90;;;;;;5056904;28;20127;-79
2021/05/06 10:04:19;;;;;;;9.20;7.75;;;11.10;99.90;;;;;;5082865;28;20048;-80
2021/05/06 10:07:04;;;;;;;;;;;11.10;99.90;;;;;;5072831;28;20052;-80
2021/05/06 10:09:30;;;;;;;;;;;11.20;99.90;;;;;;5083651;28;20010;-80
2021/05/06 10:12:00;;;;;;;13.10;7.03;;;11.30;99.90;;;;;;5076321;28;20350;-79
2021/05/06 10:14:27;;;;;;;9.43;7.00;;;11.40;99.90;;;;;;5073499;28;20120;-79
2021/05/06 10:16:54;;;;;;;12.75;7.97;;;11.60;99.90;;;;;;5076769;28;20162;-79
2021/05/06 10:19:20;;;;;;;9.68;7.35;;;11.80;99.90;;;;;;5075717;28;20490;-80
2021/05/06 10:21:47;;;;;;;7.93;7.10;;;12.10;99.90;;;;;;5082106;28;20126;-80
2021/05/06 10:24:16;;;;;;;7.18;5.28;;;12.30;99.90;;;;;;5071943;28;20958;-81
2021/05/06 10:26:49;;;;;;;6.75;4.93;;;12.80;99.90;;;;;;5075634;28;20040;-80
2021/05/06 10:29:17;;;;;;;5.38;4.85;;;13.30;99.90;;;;;;5080220;28;20056;-80
2021/05/06 10:31:45;;;;;;;5.68;5.10;;;13.60;98.80;;;;;;5080083;28;20134;-80
2021/05/06 10:34:12;;;;;;;5.97;4.60;;;13.90;97.60;;;;;;5079589;28;20106;-80
2021/05/06 10:36:39;;;;;;;6.85;5.05;;;14.00;95.00;;;;;;5082153;28;20074;-83
2021/05/06 10:39:13;;;;;;;5.95;4.53;;;14.00;93.30;;;;;;5079301;28;20052;-82
2021/05/06 10:41:39;;;;;;;6.13;4.22;;;14.20;94.10;;;;;;5087109;28;20131;-82
2021/05/06 10:44:06;;;;;;;7.15;4.60;;;14.40;93.40;;;;;;5089146;28;20059;-80
2021/05/06 10:46:56;;;;;;;8.07;4.20;;;14.70;93.20;;;;;;5078300;28;20109;-81
2021/05/06 10:49:43;;;;;;;4.07;3.13;;;15.00;87.70;;;;;;5080761;28;20040;-80
2021/05/06 10:52:14;;;;;;;5.95;3.38;;;15.00;82.70;;;;;;5038350;28;20118;-80
2021/05/06 10:54:48;;;;;;;3.40;3.10;;;15.20;86.00;;;;;;5080129;28;20135;-80
2021/05/06 10:57:22;;;;;;;3.20;2.90;;;15.50;78.60;;;;;;5080816;28;20138;-80
2021/05/06 10:59:50;;;;;;;3.40;3.10;;;15.50;79.30;;;;;;5069553;28;20483;-80
2021/05/06 11:02:40;;;;;;;3.50;3.20;;;15.60;74.90;;;;;;5071742;28;20581;-82
2021/05/06 11:05:30;;;;;;;4.88;3.55;;;15.70;73.50;;;;;;5071228;28;20071;-81
2021/05/06 11:08:05;;;;;;;4.20;3.63;;;15.90;75.90;;;;;;5050674;28;20609;-81
2021/05/06 11:10:47;;;;;;;4.00;3.60;;;15.90;71.10;;;;;;5049778;28;20607;-81
2021/05/06 11:13:16;;;;;;;3.78;3.47;;;15.80;73.30;;;;;;5064969;28;20093;-80
2021/05/06 11:15:42;;;;;;;5.18;3.20;;;15.70;70.90;;;;;;5090661;28;20056;-80
2021/05/06 11:18:52;;;;;;;6.03;4.05;;;15.60;69.40;;;;;;5063016;28;20119;-81
2021/05/06 11:21:33;;;;;;;4.65;3.40;;;15.70;77.40;;;;;;5055993;28;20049;-80
2021/05/06 11:24:30;;;;;;;3.67;3.35;;;16.20;72.70;;;;;;5002062;28;20048;-81
2021/05/06 11:27:39;;;;;;;3.80;3.20;;;16.60;76.80;;;;;;4958550;28;20048;-81
2021/05/06 11:30:29;;;;;;;4.68;3.40;;;17.20;71.60;;;;;;5021170;28;20040;-81
2021/05/06 11:32:56;;;;;;;5.00;3.67;;;17.50;62.80;;;;;;5035374;28;20051;-80
2021/05/06 11:35:56;;;;;;;3.47;3.15;;;17.50;66.30;;;;;;5051641;28;20044;-81
2021/05/06 11:38:39;;;;;;;4.35;3.20;;;17.70;60.10;;;;;;5067407;28;20414;-79
2021/05/06 11:41:17;;;;;;;3.70;3.40;;;17.90;65.60;;;;;;5077087;28;20119;-81
2021/05/06 11:43:55;;;;;;;4.28;3.88;;;18.10;60.00;;;;;;5080554;28;20483;-77
2021/05/06 11:46:35;;;;;;;4.35;3.50;;;17.70;56.20;;;;;;5068429;28;20067;-80
2021/05/06 11:49:04;;;;;;;3.97;3.65;;;17.30;60.00;;;;;;5074696;28;20130;-80
2021/05/06 11:51:42;;;;;;;5.05;2.90;;;16.80;57.90;;;;;;5079522;28;20428;-80
2021/05/06 11:54:18;;;;;;;3.47;3.17;;;16.10;60.40;;;;;;5077215;28;20044;-81
2021/05/06 11:56:57;;;;;;;3.47;3.17;;;15.50;59.20;;;;;;5082567;28;20052;-81
2021/05/06 11:59:31;;;;;;;4.32;3.45;;;14.90;62.00;;;;;;5080257;28;20039;-81
2021/05/06 12:02:06;;;;;;;3.85;3.20;;;14.30;68.80;;;;;;5080195;28;20506;-80
2021/05/06 12:04:37;;;;;;;3.65;3.35;;;13.80;71.10;;;;;;5085734;28;20048;-80
2021/05/06 12:07:16;;;;;;;4.45;3.25;;;13.10;73.20;;;;;;5079676;28;20112;-80
2021/05/06 12:09:45;;;;;;;5.22;3.50;;;12.50;76.10;;;;;;5072848;28;20044;-81
2021/05/06 12:12:23;;;;;;;5.13;3.85;;;12.00;79.90;;;;;;5070572;28;20086;-80
2021/05/06 12:14:58;;;;;;;8.35;4.60;;;11.60;90.20;;;;;;5081515;28;20047;-80
2021/05/06 12:17:24;;;;;;;5.20;4.43;;;11.10;96.00;;;;;;5080244;28;20125;-80
2021/05/06 12:19:51;;;;;;;4.90;4.45;;;10.60;99.90;;;;;;5079134;28;20140;-80
2021/05/06 12:22:18;;;;;;;5.28;4.78;;;10.30;99.90;;;;;;5078048;28;20504;-80
2021/05/06 12:24:53;;;;;;;6.68;4.78;;;9.80;99.90;;;;;;5064899;28;20099;-82
2021/05/06 12:27:27;;;;;;;5.18;4.28;;;9.60;99.90;;;;;;5066854;28;20102;-81
2021/05/06 12:29:57;;;;;;;6.40;4.70;;;9.40;99.90;;;;;;5076234;28;20091;-80
2021/05/06 12:32:24;;;;;;;4.80;4.40;;;9.40;99.90;;;;;;5092396;28;20075;-80
2021/05/06 12:34:54;;;;;;;7.88;4.53;;;9.40;99.90;;;;;;5067808;28;20056;-80
2021/05/06 12:37:28;;;;;;;6.00;4.13;;;9.70;99.90;;;;;;5076089;28;20457;-79
2021/05/06 12:39:55;;;;;;;11.23;4.18;;;10.00;99.90;;;;;;5073030;28;20133;-80
2021/05/06 12:42:34;;;;;;;7.22;4.18;;;10.30;99.90;;;;;;5064055;28;20071;-80
2021/05/06 12:45:22;;;;;;;5.22;4.30;;;10.90;99.90;;;;;;5075058;28;20044;-80
2021/05/06 12:47:49;;;;;;;5.10;3.70;;;11.50;99.90;;;;;;5074073;28;20051;-80
2021/05/06 12:50:26;;;;;;;5.25;3.63;;;12.30;99.90;;;;;;5074002;28;20143;-80
2021/05/06 12:53:04;;;;;;;5.68;3.75;;;12.80;99.90;;;;;;5073511;28;20926;-80
2021/05/06 12:55:40;;;;;;;5.38;4.05;;;13.40;99.90;;;;;;5028860;28;20043;-79
2021/05/06 12:58:25;;;;;;;6.38;3.40;;;13.80;99.90;;;;;;5035195;28;20115;-81
2021/05/06 13:00:55;;;;;;;6.22;4.45;;;14.10;99.70;;;;;;5033852;28;20053;-80
2021/05/06 13:03:31;;;;;;;4.10;3.70;;;14.50;97.10;;;;;;5044055;28;20044;-81
2021/05/06 13:06:15;;;;;;;3.35;3.03;;;14.80;93.40;;;;;;5040922;28;20477;-80
2021/05/06 13:08:46;;;;;;;4.13;3.65;;;14.70;92.30;;;;;;5054952;28;20061;-80
2021/05/06 13:11:23;;;;;;;4.63;4.18;;;14.60;91.80;;;;;;5056452;28;20068;-80
2021/05/06 13:13:51;;;;;;;4.25;3.88;;;14.50;92.50;;;;;;5042432;28;20043;-80
2021/05/06 13:16:38;;;;;;;5.90;3.95;;;14.40;91.60;;;;;;5095858;28;20501;-81
2021/05/06 13:19:10;;;;;;;4.60;4.15;;;14.10;91.50;;;;;;5078468;28;20500;-81
2021/05/06 13:21:45;;;;;;;4.50;3.92;;;13.90;91.30;;;;;;5078280;28;20054;-80
2021/05/06 13:24:11;;;;;;;4.15;3.75;;;13.60;92.20;;;;;;5075458;28;20624;-80
2021/05/06 13:26:39;;;;;;;3.53;3.22;;;13.40;90.20;;;;;;5078807;28;20056;-81
2021/05/06 13:29:16;;;;;;;4.70;3.40;;;13.20;90.90;;;;;;5079080;28;20051;-82
2021/05/06 13:31:47;;;;;;;6.45;3.92;;;13.20;92.20;;;;;;5079475;28;20065;-81
2021/05/06 13:34:18;;;;;;;3.58;3.28;;;13.20;92.70;;;;;;5078658;28;20052;-80
2021/05/06 13:36:49;;;;;;;5.70;3.30;;;13.30;93.10;;;;;;5071736;28;20056;-80
2021/05/06 13:39:16;;;;;;;3.85;3.45;;;13.40;90.80;;;;;;5079665;28;20053;-80
2021/05/06 13:41:47;;;;;;;4.40;3.95;;;13.30;90.30;;;;;;5078499;28;20047;-81
2021/05/06 13:44:16;;;;;;;5.63;3.85;;;13.30;91.30;;;;;;5079045;28;20056;-80
2021/05/06 13:46:48;;;;;;;4.97;3.92;;;13.20;92.00;;;;;;5059603;28;20115;-81
2021/05/06 13:49:26;;;;;;;6.25;4.07;;;13.10;91.80;;;;;;5080355;28;20114;-81
2021/05/06 13:52:08;;;;;;;4.45;4.03;;;13.10;92.70;;;;;;5038477;28;20047;-81
2021/05/06 13:54:34;;;;;;;5.15;3.28;;;13.40;90.00;;;;;;5079579;28;20076;-80
2021/05/06 13:57:01;;;;;;;4.43;3.35;;;13.60;86.40;;;;;;5070518;28;20056;-81
2021/05/06 13:59:27;;;;;;;4.40;3.15;;;13.80;88.40;;;;;;5069879;28;20538;-79
2021/05/06 14:01:55;;;;;;;4.43;3.85;;;13.90;88.90;;;;;;5080990;28;20052;-79
2021/05/06 14:04:23;;;;;;;5.88;4.18;;;14.10;85.70;;;;;;5067213;28;20048;-79
2021/05/06 14:06:50;;;;;;;5.43;4.07;;;14.30;85.50;;;;;;5066743;28;20071;-80
2021/05/06 14:09:18;;;;;;;4.93;3.50;;;14.30;84.70;;;;;;5089732;28;20055;-80
2021/05/06 14:11:46;;;;;;;4.95;3.95;;;14.20;78.80;;;;;;5074400;28;20068;-79
2021/05/06 14:14:13;;;;;;;4.38;3.65;;;13.90;82.80;;;;;;5079249;28;20048;-79
2021/05/06 14:16:40;;;;;;;7.22;3.75;;;13.70;81.20;;;;;;5076917;28;20072;-78
2021/05/06 14:19:08;;;;;;;5.07;3.38;;;13.60;86.20;;;;;;5073851;28;20471;-78
2021/05/06 14:21:37;;;;;;;4.53;4.13;;;13.60;88.70;;;;;;5078819;28;20052;-79
2021/05/06 14:24:03;;;;;;;6.85;4.68;;;13.60;82.40;;;;;;5077981;28;20104;-78
2021/05/06 14:26:30;;;;;;;4.00;3.60;;;13.50;84.10;;;;;;5075143;28;20043;-78
2021/05/06 14:28:56;;;;;;;4.82;3.92;;;13.40;85.50;;;;;;5075997;28;20127;-78
2021/05/06 14:31:23;;;;;;;5.43;3.50;;;13.30;87.40;;;;;;5075309;28;20752;-79
2021/05/06 14:33:49;;;;;;;4.47;3.13;;;13.20;89.40;;;;;;5081717;28;20049;-78
2021/05/06 14:36:16;;;;;;;11.85;3.80;;;13.10;84.30;;;;;;5067861;28;20492;-79
2021/05/06 14:38:43;;;;;;;6.65;4.28;;;13.00;87.50;;;;;;5075360;28;20128;-78
2021/05/06 14:41:10;;;;;;;5.00;3.90;;;12.90;86.20;;;;;;5058520;28;20079;-80
2021/05/06 14:43:37;;;;;;;4.97;4.10;;;12.80;86.10;;;;;;5075880;28;20060;-80
2021/05/06 14:46:05;;;;;;;6.22;4.38;;;12.60;86.60;;;;;;5074960;28;20528;-80
2021/05/06 14:48:31;;;;;;;7.97;4.22;;;12.50;90.00;;;;;;5092092;28;20482;-79
2021/05/06 14:50:58;;;;;;;6.35;3.92;;;12.40;88.60;;;;;;5080447;28;20146;-79
2021/05/06 14:53:26;;;;;;;5.22;3.97;;;12.50;91.20;;;;;;5075855;28;20563;-79
2021/05/06 14:55:52;;;;;;;5.65;4.07;;;12.50;88.70;;;;;;5073239;28;20575;-79
2021/05/06 14:58:19;;;;;;;6.72;3.83;;;12.50;84.10;;;;;;5072896;28;20055;-79
2021/05/06 15:00:45;;;;;;;6.15;3.85;;;12.50;88.70;;;;;;5071715;28;20048;-80
2021/05/06 15:03:11;;;;;;;4.40;4.00;;;12.60;89.20;;;;;;5087808;28;20045;-79
2021/05/06 15:05:38;;;;;;;5.85;4.60;;;12.60;86.00;;;;;;5068576;28;20595;-80
2021/05/06 15:08:07;;;;;;;4.20;3.80;;;12.70;90.00;;;;;;5042222;28;20044;-80
2021/05/06 15:10:34;;;;;;;7.70;4.45;;;12.80;91.40;;;;;;5059059;28;20060;-80
2021/05/06 15:13:00;;;;;;;4.47;4.07;;;13.20;89.80;;;;;;5045505;28;20167;-80
2021/05/06 15:15:27;;;;;;;8.35;4.28;;;13.40;90.70;;;;;;5074338;28;20056;-80
2021/05/06 15:17:56;;;;;;;4.72;4.28;;;13.90;87.00;;;;;;5062671;28;20085;-81
2021/05/06 15:20:30;;;;;;;4.70;4.20;;;14.30;86.00;;;;;;5078730;28;20276;-81
2021/05/06 15:23:01;;;;;;;6.70;4.35;;;15.00;82.80;;;;;;5070048;28;20058;-81
2021/05/06 15:25:31;;;;;;;6.03;4.25;;;15.60;78.00;;;;;;5054904;28;20124;-80
2021/05/06 15:27:57;;;;;;;5.47;4.35;;;16.00;79.80;;;;;;5046580;28;20085;-81
2021/05/06 15:30:24;;;;;;;5.22;4.72;;;16.30;76.00;;;;;;5078872;28;20079;-81
2021/05/06 15:32:51;;;;;;;5.50;4.13;;;16.80;75.90;;;;;;5079705;28;20052;-81
2021/05/06 15:35:20;;;;;;;4.30;3.60;;;17.50;71.60;;;;;;5082746;28;20512;-81
2021/05/06 15:37:52;;;;;;;7.20;3.72;;;18.40;67.20;;;;;;5082391;28;20507;-81
2021/05/06 15:40:18;;;;;;;6.63;5.00;;;19.30;64.30;;;;;;5080836;28;20056;-80
2021/05/06 15:42:46;;;;;;;4.95;3.90;;;20.00;58.80;;;;;;5081913;28;20052;-81
2021/05/06 15:45:13;;;;;;;4.20;3.60;;;20.00;57.60;;;;;;5082352;28;20525;-80
2021/05/06 15:47:40;;;;;;;6.70;3.90;;;19.90;57.40;;;;;;5081276;28;20059;-81
2021/05/06 15:50:12;;;;;;;4.43;4.03;;;19.70;52.70;;;;;;5087237;28;20509;-81
2021/05/06 15:52:52;;;;;;;6.40;4.20;;;19.60;55.70;;;;;;5077810;28;20045;-81
2021/05/06 15:55:21;;;;;;;4.70;3.58;;;20.10;52.90;;;;;;5082077;27;20150;-81
2021/05/06 15:57:48;;;;;;;5.22;3.75;;;20.60;53.50;;;;;;5068748;28;20052;-81
2021/05/06 16:00:16;;;;;;;3.88;3.50;;;21.10;47.60;;;;;;5078166;28;20060;-80
2021/05/06 16:02:46;;;;;;;5.35;3.80;;;20.80;49.40;;;;;;5038797;28;20053;-80